Time,TemperatureF,DewpointF,PressureIn,WindDirection,WindDirectionDegrees,WindSpeedMPH,WindSpeedGustMPH,Humidity,HourlyPrecipIn,Conditions,Clouds,dailyrainin,SoftwareType,DateUTC
2013-04-11 00:08:00,17.9,5.0,30.11,NW,314,3.0,6.0,58,0.00,,,0.00,weatherlink.com 1.10,2013-04-11 06:08:00,
2013-04-11 00:23:00,16.4,5.0,30.13,West,267,4.0,8.0,62,0.00,,,0.00,weatherlink.com 1.10,2013-04-11 06:23:00,
2013-04-11 00:38:00,15.1,6.0,30.12,NE,36,0.0,5.0,66,0.00,,,0.00,weatherlink.com 1.10,2013-04-11 06:38:00,
2013-04-11 00:53:00,15.0,6.0,30.12,West,281,0.0,4.0,67,0.00,,,0.00,weatherlink.com 1.10,2013-04-11 06:53:00,
2013-04-11 01:08:00,14.9,6.0,30.12,WSW,240,2.0,3.0,68,0.00,,,0.00,weatherlink.com 1.10,2013-04-11 07:08:00,
2013-04-11 01:23:00,13.6,6.0,30.10,West,272,4.0,5.0,72,0.00,,,0.00,weatherlink.com 1.10,2013-04-11 07:23:00,
2013-04-11 01:38:00,13.1,6.0,30.09,NNW,330,2.0,6.0,74,0.00,,,0.00,weatherlink.com 1.10,2013-04-11 07:38:00,
2013-04-11 01:53:00,11.7,6.0,30.09,NNW,328,1.0,5.0,76,0.00,,,0.00,weatherlink.com 1.10,2013-04-11 07:53:00,
2013-04-11 02:08:00,12.4,7.0,30.10,North,4,2.0,4.0,77,0.00,,,0.00,weatherlink.com 1.10,2013-04-11 08:08:00,
2013-04-11 02:23:00,14.0,7.0,30.09,NNW,346,1.0,7.0,75,0.00,,,0.00,weatherlink.com 1.10,2013-04-11 08:23:00,
2013-04-11 02:38:00,14.5,7.0,30.08,North,9,2.0,6.0,73,0.00,,,0.00,weatherlink.com 1.10,2013-04-11 08:38:00,
2013-04-11 02:53:00,13.9,7.0,30.08,NNW,330,1.0,3.0,75,0.00,,,0.00,weatherlink.com 1.10,2013-04-11 08:53:00,
2013-04-11 03:08:00,13.6,7.0,30.08,NW,314,3.0,6.0,75,0.00,,,0.00,weatherlink.com 1.10,2013-04-11 09:08:00,
2013-04-11 03:23:00,13.9,7.0,30.09,North,8,3.0,6.0,75,0.00,,,0.00,weatherlink.com 1.10,2013-04-11 09:23:00,
2013-04-11 03:38:00,13.2,7.0,30.09,NNW,328,0.0,7.0,75,0.00,,,0.00,weatherlink.com 1.10,2013-04-11 09:38:00,
2013-04-11 03:53:00,13.3,7.0,30.09,WNW,285,1.0,4.0,76,0.00,,,0.00,weatherlink.com 1.10,2013-04-11 09:53:00,
2013-04-11 04:08:00,12.8,7.0,30.09,NNW,333,0.0,1.0,76,0.00,,,0.00,weatherlink.com 1.10,2013-04-11 10:08:00,
2013-04-11 04:23:00,12.4,6.0,30.09,NNW,342,0.0,0.0,76,0.00,,,0.00,weatherlink.com 1.10,2013-04-11 10:23:00,
2013-04-11 04:38:00,11.7,6.0,30.09,NW,315,0.0,3.0,77,0.00,,,0.00,weatherlink.com 1.10,2013-04-11 10:38:00,
2013-04-11 04:53:00,11.5,6.0,30.10,NNW,342,1.0,4.0,78,0.00,,,0.00,weatherlink.com 1.10,2013-04-11 10:53:00,
2013-04-11 05:08:00,11.4,6.0,30.11,WNW,283,1.0,5.0,77,0.00,,,0.00,weatherlink.com 1.10,2013-04-11 11:08:00,
2013-04-11 05:23:00,11.1,6.0,30.09,ESE,103,2.0,3.0,78,0.00,,,0.00,weatherlink.com 1.10,2013-04-11 11:23:00,
2013-04-11 05:39:00,11.5,6.0,30.10,WNW,297,2.0,4.0,79,0.00,,,0.00,weatherlink.com 1.10,2013-04-11 11:39:00,
2013-04-11 05:54:00,11.6,6.0,30.09,North,1,0.0,3.0,78,0.00,,,0.00,weatherlink.com 1.10,2013-04-11 11:54:00,
2013-04-11 06:09:00,11.2,6.0,30.11,WNW,300,1.0,-999.0,79,-99.99,,,0.00,weatherlink.com 1.10,2013-04-11 12:09:00,
2013-04-11 06:24:00,11.1,6.0,30.11,NNE,29,0.0,1.0,80,0.00,,,0.00,weatherlink.com 1.10,2013-04-11 12:24:00,
2013-04-11 06:39:00,11.8,7.0,30.12,WSW,246,0.0,2.0,80,0.00,,,0.00,weatherlink.com 1.10,2013-04-11 12:39:00,
2013-04-11 06:54:00,13.0,8.0,30.12,West,276,0.0,1.0,79,0.00,,,0.00,weatherlink.com 1.10,2013-04-11 12:54:00,
2013-04-11 07:09:00,13.7,8.0,30.12,SSW,210,0.0,2.0,79,0.00,,,0.00,weatherlink.com 1.10,2013-04-11 13:09:00,
2013-04-11 07:24:00,14.3,8.0,30.12,NNW,342,0.0,1.0,77,0.00,,,0.00,weatherlink.com 1.10,2013-04-11 13:24:00,
2013-04-11 07:39:00,15.0,9.0,30.12,NE,50,2.0,2.0,76,0.00,,,0.00,weatherlink.com 1.10,2013-04-11 13:39:00,
2013-04-11 07:54:00,15.6,9.0,30.13,North,349,1.0,7.0,76,0.00,,,0.00,weatherlink.com 1.10,2013-04-11 13:54:00,
2013-04-11 08:09:00,16.7,10.0,30.13,NW,322,0.0,3.0,76,0.00,,,0.00,weatherlink.com 1.10,2013-04-11 14:09:00,
2013-04-11 08:24:00,19.3,12.0,30.13,West,276,1.0,2.0,72,0.00,,,0.00,weatherlink.com 1.10,2013-04-11 14:24:00,
2013-04-11 08:39:00,20.9,12.0,30.13,West,269,0.0,2.0,69,0.00,,,0.00,weatherlink.com 1.10,2013-04-11 14:39:00,
2013-04-11 08:54:00,23.8,14.0,30.11,East,96,4.0,4.0,65,0.00,,,0.00,weatherlink.com 1.10,2013-04-11 14:54:00,
2013-04-11 09:09:00,24.0,14.0,30.10,SE,125,0.0,4.0,65,0.00,,,0.00,weatherlink.com 1.10,2013-04-11 15:09:00,
2013-04-11 09:24:00,27.1,15.0,30.10,SSE,155,1.0,2.0,60,0.00,,,0.00,weatherlink.com 1.10,2013-04-11 15:24:00,
2013-04-11 09:39:00,28.5,15.0,30.09,SE,125,1.0,2.0,57,0.00,,,0.00,weatherlink.com 1.10,2013-04-11 15:39:00,
2013-04-11 09:54:00,30.3,16.0,30.09,SSE,153,1.0,3.0,56,0.00,,,0.00,weatherlink.com 1.10,2013-04-11 15:54:00,
2013-04-11 10:09:00,31.8,17.0,30.08,SE,125,1.0,3.0,54,0.00,,,0.00,weatherlink.com 1.10,2013-04-11 16:09:00,
2013-04-11 10:24:00,32.7,19.0,30.07,SE,135,1.0,5.0,57,0.00,,,0.00,weatherlink.com 1.10,2013-04-11 16:24:00,
2013-04-11 10:39:00,36.1,21.0,30.06,SSE,155,3.0,5.0,55,0.00,,,0.00,weatherlink.com 1.10,2013-04-11 16:39:00,
2013-04-11 10:54:00,38.6,23.0,30.05,NNE,12,5.0,8.0,53,0.02,,,0.02,weatherlink.com 1.10,2013-04-11 16:54:00,
2013-04-11 11:09:00,39.6,23.0,30.04,NW,321,7.0,17.0,51,0.02,,,0.02,weatherlink.com 1.10,2013-04-11 17:09:00,
2013-04-11 11:24:00,39.5,23.0,30.04,NW,325,10.0,17.0,51,0.03,,,0.03,weatherlink.com 1.10,2013-04-11 17:24:00,
2013-04-11 11:39:00,39.9,22.0,30.03,NW,325,12.0,16.0,49,0.03,,,0.03,weatherlink.com 1.10,2013-04-11 17:39:00,
2013-04-11 11:54:00,39.9,21.0,30.03,NNW,342,12.0,17.0,48,0.01,,,0.03,weatherlink.com 1.10,2013-04-11 17:54:00,
2013-04-11 12:09:00,40.4,22.0,30.02,North,349,10.0,14.0,49,0.01,,,0.03,weatherlink.com 1.10,2013-04-11 18:09:00,
2013-04-11 12:40:00,42.2,25.0,30.01,NW,325,7.0,14.0,50,0.00,,,0.03,weatherlink.com 1.10,2013-04-11 18:40:00,
2013-04-11 12:55:00,42.0,23.0,30.00,NNW,347,13.0,19.0,47,0.00,,,0.03,weatherlink.com 1.10,2013-04-11 18:55:00,
2013-04-11 13:10:00,40.9,23.0,29.98,North,1,22.0,23.0,50,0.00,,,0.03,weatherlink.com 1.10,2013-04-11 19:10:00,
2013-04-11 13:25:00,41.0,24.0,29.99,NNW,337,12.0,22.0,52,0.00,,,0.03,weatherlink.com 1.10,2013-04-11 19:25:00,
2013-04-11 13:40:00,41.6,23.0,29.99,NNW,327,12.0,20.0,48,0.00,,,0.03,weatherlink.com 1.10,2013-04-11 19:40:00,
2013-04-11 13:55:00,42.1,24.0,29.99,NNW,340,10.0,21.0,48,0.00,,,0.03,weatherlink.com 1.10,2013-04-11 19:55:00,
2013-04-11 14:10:00,42.6,23.0,29.99,WNW,302,7.0,17.0,46,0.00,,,0.03,weatherlink.com 1.10,2013-04-11 20:10:00,
2013-04-11 14:25:00,43.2,22.0,29.98,NW,324,8.0,12.0,44,0.00,,,0.03,weatherlink.com 1.10,2013-04-11 20:25:00,
2013-04-11 14:40:00,43.7,22.0,29.98,NNW,330,7.0,19.0,42,0.00,,,0.03,weatherlink.com 1.10,2013-04-11 20:40:00,
2013-04-11 14:55:00,44.0,22.0,29.98,WNW,294,8.0,17.0,42,0.00,,,0.03,weatherlink.com 1.10,2013-04-11 20:55:00,
2013-04-11 15:10:00,42.3,22.0,29.98,NNE,23,4.0,13.0,45,0.00,,,0.03,weatherlink.com 1.10,2013-04-11 21:10:00,
2013-04-11 15:25:00,42.5,22.0,29.98,NW,318,7.0,17.0,44,0.00,,,0.03,weatherlink.com 1.10,2013-04-11 21:25:00,
2013-04-11 15:40:00,42.1,25.0,29.98,North,349,7.0,24.0,50,0.00,,,0.03,weatherlink.com 1.10,2013-04-11 21:40:00,
2013-04-11 15:55:00,40.4,23.0,29.97,NNW,333,9.0,21.0,50,0.00,,,0.03,weatherlink.com 1.10,2013-04-11 21:55:00,
2013-04-11 16:10:00,40.0,24.0,29.97,NW,325,13.0,19.0,53,0.00,,,0.03,weatherlink.com 1.10,2013-04-11 22:10:00,
2013-04-11 16:25:00,40.7,21.0,29.96,NNW,343,12.0,16.0,46,0.00,,,0.03,weatherlink.com 1.10,2013-04-11 22:25:00,
2013-04-11 16:40:00,40.6,22.0,29.96,NNW,330,6.0,20.0,48,0.00,,,0.03,weatherlink.com 1.10,2013-04-11 22:40:00,
2013-04-11 16:55:00,41.9,21.0,29.96,NNW,328,10.0,19.0,43,0.00,,,0.03,weatherlink.com 1.10,2013-04-11 22:55:00,
2013-04-11 17:10:00,42.6,20.0,29.96,NW,325,14.0,20.0,41,0.00,,,0.03,weatherlink.com 1.10,2013-04-11 23:10:00,
2013-04-11 17:25:00,42.5,19.0,29.97,NW,316,11.0,17.0,39,0.00,,,0.03,weatherlink.com 1.10,2013-04-11 23:25:00,
2013-04-11 17:40:00,41.9,21.0,29.97,NNW,330,10.0,18.0,43,0.00,,,0.03,weatherlink.com 1.10,2013-04-11 23:40:00,
2013-04-11 17:55:00,41.7,20.0,29.98,NNW,337,9.0,18.0,42,0.00,,,0.03,weatherlink.com 1.10,2013-04-11 23:55:00,
2013-04-11 18:10:00,41.6,19.0,29.97,NW,312,14.0,16.0,40,0.00,,,0.03,weatherlink.com 1.10,2013-04-12 00:10:00,
2013-04-11 18:25:00,41.4,20.0,29.97,NW,307,10.0,13.0,42,0.00,,,0.03,weatherlink.com 1.10,2013-04-12 00:25:00,
2013-04-11 18:40:00,41.2,18.0,29.96,WNW,285,8.0,16.0,40,0.00,,,0.03,weatherlink.com 1.10,2013-04-12 00:40:00,
2013-04-11 18:55:00,39.7,20.0,29.97,NNW,346,8.0,17.0,46,0.00,,,0.03,weatherlink.com 1.10,2013-04-12 00:55:00,
2013-04-11 19:10:00,37.2,21.0,29.97,North,350,16.0,16.0,52,0.00,,,0.03,weatherlink.com 1.10,2013-04-12 01:10:00,
2013-04-11 19:25:00,36.2,22.0,29.98,NNW,328,4.0,15.0,56,0.00,,,0.03,weatherlink.com 1.10,2013-04-12 01:25:00,
2013-04-11 19:40:00,35.3,21.0,29.98,NNW,328,4.0,11.0,57,0.00,,,0.03,weatherlink.com 1.10,2013-04-12 01:40:00,
2013-04-11 19:55:00,33.7,22.0,29.98,NW,304,4.0,10.0,63,0.00,,,0.03,weatherlink.com 1.10,2013-04-12 01:55:00,
2013-04-11 20:10:00,32.7,21.0,29.99,WNW,302,2.0,7.0,63,0.00,,,0.03,weatherlink.com 1.10,2013-04-12 02:10:00,
2013-04-11 20:25:00,33.0,21.0,29.99,WNW,302,7.0,7.0,61,0.00,,,0.03,weatherlink.com 1.10,2013-04-12 02:25:00,
2013-04-11 20:40:00,32.1,21.0,30.00,West,278,2.0,4.0,63,0.00,,,0.03,weatherlink.com 1.10,2013-04-12 02:40:00,
2013-04-11 20:55:00,31.0,20.0,30.00,NNW,334,2.0,2.0,64,0.00,,,0.03,weatherlink.com 1.10,2013-04-12 02:55:00,
2013-04-11 21:10:00,30.2,19.0,30.01,WNW,287,3.0,3.0,63,0.00,,,0.03,weatherlink.com 1.10,2013-04-12 03:10:00,
2013-04-11 21:25:00,29.6,19.0,30.02,West,269,2.0,3.0,65,0.00,,,0.03,weatherlink.com 1.10,2013-04-12 03:25:00,
2013-04-11 21:40:00,29.5,19.0,30.02,WNW,290,1.0,3.0,64,0.00,,,0.03,weatherlink.com 1.10,2013-04-12 03:40:00,
2013-04-11 21:55:00,28.5,18.0,30.03,WSW,243,1.0,3.0,64,0.00,,,0.03,weatherlink.com 1.10,2013-04-12 03:55:00,
2013-04-11 22:10:00,28.2,17.0,30.04,WSW,238,1.0,5.0,62,0.00,,,0.03,weatherlink.com 1.10,2013-04-12 04:10:00,
2013-04-11 22:25:00,27.7,17.0,30.05,West,276,2.0,4.0,64,0.00,,,0.03,weatherlink.com 1.10,2013-04-12 04:25:00,
2013-04-11 22:40:00,27.7,16.0,30.05,West,259,1.0,7.0,61,0.00,,,0.03,weatherlink.com 1.10,2013-04-12 04:40:00,
2013-04-11 22:55:00,27.1,16.0,30.05,WNW,303,6.0,8.0,62,0.00,,,0.03,weatherlink.com 1.10,2013-04-12 04:55:00,
2013-04-11 23:10:00,26.8,18.0,30.05,West,271,0.0,7.0,69,0.00,,,0.03,weatherlink.com 1.10,2013-04-12 05:10:00,
2013-04-11 23:25:00,26.5,16.0,30.05,WNW,288,3.0,6.0,66,0.00,,,0.03,weatherlink.com 1.10,2013-04-12 05:25:00,
2013-04-11 23:40:00,25.4,16.0,30.05,WNW,294,1.0,5.0,67,0.00,,,0.03,weatherlink.com 1.10,2013-04-12 05:40:00,
2013-04-11 23:55:00,25.4,15.0,30.06,WNW,300,2.0,3.0,65,0.00,,,0.03,weatherlink.com 1.10,2013-04-12 05:55:00,